Accueil
METAR-TAF:

METAR-TAF

Aéroports :

Nörvenich, Allemagne

Base aérienne de Nörvenich

latitude: 50-50N, longitude: 006-40E, altitude: 118 m

Observation

Le bulletin a été fait il y a 32 minutes, à 01:20 UTC
Vent 5 kt de ouest/sud-ouest
Température 15°C
Humidité 72%
Pression 1017 hPa
Visibilité 10 km ou plus
Nuages épars à une hauteur de 24000 ft

METAR: ETNN 240120Z 25005KT 9999 SCT240 15/10 Q1017 BLU+

Heure: 03:52 (01:52 UTC)

Prévision

Le bulletin a été fait il y a 15 heures et 44 minutes, à 10:08 UTC
Prévision valable du 23 à 08 UTC au 23 à 17 UTC
Vent 12 kt de ouest
Visibilité 10 km ou plus
Nuages épars à une hauteur de 4000 ft
Nuages fragmentés à une hauteur de 24000 ft

TAF: ETNN 231008Z 2308/2317 26012KT 9999 NSW SCT040 BKN240 CANCEL BY ETGL

Observations et prévisions météorologiques de plus de 4000 aéroports (messages METAR et TAF).

Les stations disponibles sont représentées par des disques jaunes et rouges sur la carte.

Passer la souris dessus pour voir le nom de la station.

Cliquer dessus pour voir les observations et prévisions météorologiques.

Pour changer de carte: cliquez sur les boutons verts avec une croix noire pour zoomer, sur le bouton vert avec un tiret pour effectuer un zoom arrière, ou sur les flèches vertes pour les cartes adjacentes.


METAR-TAF: